McAlester, OK

3:09 AM CST on February 24, 2017 (GMT -0600)
McAlester Regional | | Change Station

Elev 768 ft 34.88 °N, 95.78 °W | Updated 16 minutes ago

Light Rain
Light Rain
55 °F
Feels Like 55 °F
N
17
Wind Variable Wind from NW
Gusts 24 mph

Today
High -- | Low -- °F
--% Chance of Precip.
Yesterday
High -- | Low -- °F
Precip. -- in
Pressure 29.57 in
Visibility 10.0 miles
Clouds Few 3900 ft
Scattered Clouds 5000 ft
Mostly Cloudy 7000 ft
Dew Point 42 °F
Humidity 62%
Rainfall 0.00 in
Snow Depth Not available.
6:58 AM 6:14 PM
Waning Crescent, 6% visible
METAR KMLC 240853Z AUTO 31015G21KT 10SM -RA FEW039 SCT050 BKN070 13/06 A2959 RMK AO2 WSHFT 0819 RAB24 SLP011 P0000 60000 T01280056 53034
Pressure 29.57 in
Visibility 10.0 miles
Clouds Few 3900 ft
Scattered Clouds 5000 ft
Mostly Cloudy 7000 ft
Dew Point 42 °F
Humidity 62%
Rainfall 0.00 in
Snow Depth Not available.
6:58 AM 6:14 PM
Waning Crescent, 6% visible
METAR KMLC 240853Z AUTO 31015G21KT 10SM -RA FEW039 SCT050 BKN070 13/06 A2959 RMK AO2 WSHFT 0819 RAB24 SLP011 P0000 60000 T01280056 53034

Get Your Daily Forecast Email!

Thanks for signing up!

Be on the lookout for a verification email in your inbox.

You'll start receiving the daily forecast at 8 AM.

×

10-Day Weather Forecast

Almanac

Astronomy

Feb. 24, 2017 Rise Set
Actual Time
Civil Twilight
Nautical Twilight
Astronomical Twilight
Moon
Length of Visible Light
Length of Day
Tomorrow will be .
, % of the Moon is Illuminated

Today's Extremes

State Highs State Lows

Community

WunderPhotos

Upload Photos

1,962,540 photos uploaded!

WunderBlog® & News

Nearby

Air Quality

  Air Quality AQ Index Pollutant
Not available.

Snow Depth

Station Depth Elevation

Earthquake Activity

City Distance Mag. Time & Date
Minimum magnitude displayed is 2.5.

Coastal Water Temperatures

Place Temperature

Stations

Nearby Weather Stations

Station Location Temp. Windchill Dew Point Humidity Wind Precip. Elev Updated Type
                   

Watches & Warnings

There are currently no watches in effect.